sensor_id;sensor_type;location;lat;lon;timestamp;pressure;altitude;pressure_sealevel;temperature;humidity
69219;BME280;56232;53.384;-2.732;2024-01-25T00:01:01;102356.87;;;3.94;43.95
69219;BME280;56232;53.384;-2.732;2024-01-25T00:03:27;102352.41;;;4.41;43.95
69219;BME280;56232;53.384;-2.732;2024-01-25T00:05:53;102346.46;;;4.39;43.98
69219;BME280;56232;53.384;-2.732;2024-01-25T00:08:23;102339.99;;;4.38;44.08
69219;BME280;56232;53.384;-2.732;2024-01-25T00:10:44;102335.98;;;4.34;44.17
69219;BME280;56232;53.384;-2.732;2024-01-25T00:13:10;102339.98;;;3.82;44.33
69219;BME280;56232;53.384;-2.732;2024-01-25T00:15:35;102349.00;;;4.81;44.46
69219;BME280;56232;53.384;-2.732;2024-01-25T00:18:01;102349.80;;;4.36;44.54
69219;BME280;56232;53.384;-2.732;2024-01-25T00:20:26;102349.71;;;3.92;44.55
69219;BME280;56232;53.384;-2.732;2024-01-25T00:22:51;102354.31;;;4.43;44.55
69219;BME280;56232;53.384;-2.732;2024-01-25T00:25:18;102359.52;;;4.45;44.63
69219;BME280;56232;53.384;-2.732;2024-01-25T00:27:42;102356.03;;;4.48;44.72
69219;BME280;56232;53.384;-2.732;2024-01-25T00:30:08;102350.61;;;4.99;44.74
69219;BME280;56232;53.384;-2.732;2024-01-25T00:32:33;102345.65;;;4.99;44.67
69219;BME280;56232;53.384;-2.732;2024-01-25T00:34:59;102343.70;;;4.94;44.70
69219;BME280;56232;53.384;-2.732;2024-01-25T00:37:24;102334.74;;;4.48;44.77
69219;BME280;56232;53.384;-2.732;2024-01-25T00:39:49;102330.52;;;4.06;44.79
69219;BME280;56232;53.384;-2.732;2024-01-25T00:42:22;102328.42;;;4.96;44.92
69219;BME280;56232;53.384;-2.732;2024-01-25T00:44:41;102329.91;;;4.90;44.86
69219;BME280;56232;53.384;-2.732;2024-01-25T00:47:06;102327.06;;;4.24;44.74
69219;BME280;56232;53.384;-2.732;2024-01-25T00:49:31;102327.04;;;4.60;44.88
69219;BME280;56232;53.384;-2.732;2024-01-25T00:51:59;102328.95;;;4.64;44.95
69219;BME280;56232;53.384;-2.732;2024-01-25T00:54:22;102332.74;;;4.61;44.57
69219;BME280;56232;53.384;-2.732;2024-01-25T00:56:48;102331.72;;;4.37;44.61
69219;BME280;56232;53.384;-2.732;2024-01-25T00:59:13;102325.78;;;4.12;44.81
69219;BME280;56232;53.384;-2.732;2024-01-25T01:01:39;102320.27;;;3.52;44.90
69219;BME280;56232;53.384;-2.732;2024-01-25T01:04:04;102317.58;;;3.90;44.90
69219;BME280;56232;53.384;-2.732;2024-01-25T01:06:30;102317.60;;;3.77;45.06
69219;BME280;56232;53.384;-2.732;2024-01-25T01:08:55;102315.53;;;3.76;45.17
69219;BME280;56232;53.384;-2.732;2024-01-25T01:11:20;102306.96;;;3.71;45.17
69219;BME280;56232;53.384;-2.732;2024-01-25T01:13:46;102308.49;;;3.75;45.40
69219;BME280;56232;53.384;-2.732;2024-01-25T01:16:11;102306.21;;;3.89;45.32
69219;BME280;56232;53.384;-2.732;2024-01-25T01:18:37;102302.32;;;4.03;45.36
69219;BME280;56232;53.384;-2.732;2024-01-25T01:21:02;102305.80;;;3.62;45.35
69219;BME280;56232;53.384;-2.732;2024-01-25T01:23:28;102303.02;;;3.72;45.24
69219;BME280;56232;53.384;-2.732;2024-01-25T01:25:53;102300.51;;;3.79;45.25
69219;BME280;56232;53.384;-2.732;2024-01-25T01:28:19;102296.63;;;4.32;45.31
69219;BME280;56232;53.384;-2.732;2024-01-25T01:30:44;102297.35;;;3.86;45.40
69219;BME280;56232;53.384;-2.732;2024-01-25T01:33:09;102287.87;;;4.43;45.38
69219;BME280;56232;53.384;-2.732;2024-01-25T01:35:35;102278.14;;;4.02;45.11
69219;BME280;56232;53.384;-2.732;2024-01-25T01:38:00;102279.49;;;4.01;45.08
69219;BME280;56232;53.384;-2.732;2024-01-25T01:40:26;102277.75;;;4.53;45.31
69219;BME280;56232;53.384;-2.732;2024-01-25T01:42:51;102270.96;;;4.57;45.16
69219;BME280;56232;53.384;-2.732;2024-01-25T01:45:18;102274.02;;;4.06;45.14
69219;BME280;56232;53.384;-2.732;2024-01-25T01:47:43;102277.99;;;4.03;45.18
69219;BME280;56232;53.384;-2.732;2024-01-25T01:50:09;102278.56;;;3.99;45.11
69219;BME280;56232;53.384;-2.732;2024-01-25T01:52:33;102275.97;;;4.10;45.24
69219;BME280;56232;53.384;-2.732;2024-01-25T01:54:59;102275.19;;;4.70;45.24
69219;BME280;56232;53.384;-2.732;2024-01-25T01:57:25;102271.18;;;4.65;45.13
69219;BME280;56232;53.384;-2.732;2024-01-25T01:59:50;102264.72;;;4.64;45.12
69219;BME280;56232;53.384;-2.732;2024-01-25T02:02:15;102265.49;;;4.52;45.04
69219;BME280;56232;53.384;-2.732;2024-01-25T02:04:42;102261.82;;;3.33;45.14
69219;BME280;56232;53.384;-2.732;2024-01-25T02:07:07;102254.95;;;4.21;45.41
69219;BME280;56232;53.384;-2.732;2024-01-25T02:09:32;102250.21;;;3.62;45.77
69219;BME280;56232;53.384;-2.732;2024-01-25T02:12:00;102245.91;;;4.27;45.77
69219;BME280;56232;53.384;-2.732;2024-01-25T02:14:23;102237.42;;;4.40;45.63
69219;BME280;56232;53.384;-2.732;2024-01-25T02:17:03;102227.53;;;3.91;45.47
69219;BME280;56232;53.384;-2.732;2024-01-25T02:19:14;102221.77;;;4.29;45.65
69219;BME280;56232;53.384;-2.732;2024-01-25T02:21:40;102221.88;;;4.30;45.74
69219;BME280;56232;53.384;-2.732;2024-01-25T02:24:06;102226.38;;;3.84;45.89
69219;BME280;56232;53.384;-2.732;2024-01-25T02:26:31;102221.63;;;3.92;45.93
69219;BME280;56232;53.384;-2.732;2024-01-25T02:28:56;102213.11;;;4.58;46.00
69219;BME280;56232;53.384;-2.732;2024-01-25T02:31:22;102197.18;;;4.70;45.84
69219;BME280;56232;53.384;-2.732;2024-01-25T02:33:47;102193.22;;;4.38;45.80
69219;BME280;56232;53.384;-2.732;2024-01-25T02:36:13;102185.48;;;4.01;45.65
69219;BME280;56232;53.384;-2.732;2024-01-25T02:38:39;102181.06;;;4.47;45.61
69219;BME280;56232;53.384;-2.732;2024-01-25T02:41:05;102185.12;;;4.52;45.74
69219;BME280;56232;53.384;-2.732;2024-01-25T02:43:30;102184.93;;;4.12;45.77
69219;BME280;56232;53.384;-2.732;2024-01-25T02:45:56;102188.43;;;4.28;45.59
69219;BME280;56232;53.384;-2.732;2024-01-25T02:48:21;102182.96;;;5.27;45.11
69219;BME280;56232;53.384;-2.732;2024-01-25T02:50:47;102181.81;;;4.14;45.22
69219;BME280;56232;53.384;-2.732;2024-01-25T02:53:12;102178.17;;;4.04;45.29
69219;BME280;56232;53.384;-2.732;2024-01-25T02:55:38;102172.63;;;4.38;45.54
69219;BME280;56232;53.384;-2.732;2024-01-25T02:58:03;102167.85;;;4.38;45.73
69219;BME280;56232;53.384;-2.732;2024-01-25T03:00:29;102164.66;;;4.03;45.97
69219;BME280;56232;53.384;-2.732;2024-01-25T03:02:54;102163.43;;;5.29;45.99
69219;BME280;56232;53.384;-2.732;2024-01-25T03:05:20;102160.76;;;5.13;45.92
69219;BME280;56232;53.384;-2.732;2024-01-25T03:07:45;102164.55;;;4.95;45.76
69219;BME280;56232;53.384;-2.732;2024-01-25T03:10:11;102162.60;;;5.29;45.51
69219;BME280;56232;53.384;-2.732;2024-01-25T03:12:37;102158.04;;;5.43;45.30
69219;BME280;56232;53.384;-2.732;2024-01-25T03:15:03;102159.23;;;5.54;45.22
69219;BME280;56232;53.384;-2.732;2024-01-25T03:17:28;102160.88;;;5.76;45.19
69219;BME280;56232;53.384;-2.732;2024-01-25T03:19:54;102158.85;;;5.88;45.16
69219;BME280;56232;53.384;-2.732;2024-01-25T03:22:20;102147.37;;;5.37;45.15
69219;BME280;56232;53.384;-2.732;2024-01-25T03:24:45;102141.48;;;6.09;44.86
69219;BME280;56232;53.384;-2.732;2024-01-25T03:27:11;102127.69;;;6.21;45.00
69219;BME280;56232;53.384;-2.732;2024-01-25T03:29:36;102117.58;;;6.36;44.87
69219;BME280;56232;53.384;-2.732;2024-01-25T03:32:02;102114.07;;;5.92;44.89
69219;BME280;56232;53.384;-2.732;2024-01-25T03:34:27;102108.19;;;5.47;44.88
69219;BME280;56232;53.384;-2.732;2024-01-25T03:36:53;102103.48;;;5.44;44.47
69219;BME280;56232;53.384;-2.732;2024-01-25T03:39:20;102107.43;;;5.09;44.71
69219;BME280;56232;53.384;-2.732;2024-01-25T03:41:43;102113.38;;;4.97;44.85
69219;BME280;56232;53.384;-2.732;2024-01-25T03:44:08;102110.17;;;5.90;44.77
69219;BME280;56232;53.384;-2.732;2024-01-25T03:46:34;102104.77;;;5.74;45.16
69219;BME280;56232;53.384;-2.732;2024-01-25T03:48:59;102097.60;;;5.08;45.38
69219;BME280;56232;53.384;-2.732;2024-01-25T03:51:25;102089.89;;;4.99;45.59
69219;BME280;56232;53.384;-2.732;2024-01-25T03:53:50;102085.61;;;5.69;45.67
69219;BME280;56232;53.384;-2.732;2024-01-25T03:56:16;102076.68;;;5.89;45.55
69219;BME280;56232;53.384;-2.732;2024-01-25T03:58:41;102074.76;;;5.29;45.41
69219;BME280;56232;53.384;-2.732;2024-01-25T04:01:07;102066.64;;;5.36;45.46
69219;BME280;56232;53.384;-2.732;2024-01-25T04:03:32;102059.53;;;5.01;45.27
69219;BME280;56232;53.384;-2.732;2024-01-25T04:05:58;102052.43;;;6.19;45.44
69219;BME280;56232;53.384;-2.732;2024-01-25T04:08:24;102047.89;;;5.29;45.41
69219;BME280;56232;53.384;-2.732;2024-01-25T04:10:49;102046.08;;;6.46;45.14
69219;BME280;56232;53.384;-2.732;2024-01-25T04:13:15;102035.94;;;5.41;45.12
69219;BME280;56232;53.384;-2.732;2024-01-25T04:15:41;102031.54;;;6.59;45.11
69219;BME280;56232;53.384;-2.732;2024-01-25T04:18:06;102031.67;;;5.53;45.14
69219;BME280;56232;53.384;-2.732;2024-01-25T04:20:31;102027.53;;;5.57;44.91
69219;BME280;56232;53.384;-2.732;2024-01-25T04:22:57;102026.54;;;5.36;44.64
69219;BME280;56232;53.384;-2.732;2024-01-25T04:25:23;102029.68;;;5.12;45.00
69219;BME280;56232;53.384;-2.732;2024-01-25T04:27:48;102031.43;;;5.46;44.96
69219;BME280;56232;53.384;-2.732;2024-01-25T04:30:13;102034.18;;;5.93;45.13
69219;BME280;56232;53.384;-2.732;2024-01-25T04:32:39;102031.48;;;4.91;45.60
69219;BME280;56232;53.384;-2.732;2024-01-25T04:35:04;102032.48;;;5.30;45.67
69219;BME280;56232;53.384;-2.732;2024-01-25T04:37:30;102028.44;;;5.56;45.35
69219;BME280;56232;53.384;-2.732;2024-01-25T04:39:55;102025.07;;;5.81;45.32
69219;BME280;56232;53.384;-2.732;2024-01-25T04:42:21;102024.87;;;6.05;45.22
69219;BME280;56232;53.384;-2.732;2024-01-25T04:44:47;102016.52;;;6.26;45.28
69219;BME280;56232;53.384;-2.732;2024-01-25T04:47:12;102013.30;;;6.63;45.09
69219;BME280;56232;53.384;-2.732;2024-01-25T04:49:38;102015.56;;;6.77;44.98
69219;BME280;56232;53.384;-2.732;2024-01-25T04:52:03;102012.39;;;6.93;45.01
69219;BME280;56232;53.384;-2.732;2024-01-25T04:54:28;102003.50;;;6.45;44.86
69219;BME280;56232;53.384;-2.732;2024-01-25T04:56:54;101998.82;;;6.88;44.54
69219;BME280;56232;53.384;-2.732;2024-01-25T04:59:20;101992.33;;;6.58;44.69
69219;BME280;56232;53.384;-2.732;2024-01-25T05:01:45;101985.15;;;6.45;45.15
69219;BME280;56232;53.384;-2.732;2024-01-25T05:04:10;101981.76;;;6.38;45.31
69219;BME280;56232;53.384;-2.732;2024-01-25T05:06:36;101987.66;;;6.28;45.69
69219;BME280;56232;53.384;-2.732;2024-01-25T05:09:01;101983.92;;;6.28;45.42
69219;BME280;56232;53.384;-2.732;2024-01-25T05:11:27;101981.38;;;6.01;45.77
69219;BME280;56232;53.384;-2.732;2024-01-25T05:13:52;101982.28;;;6.02;45.66
69219;BME280;56232;53.384;-2.732;2024-01-25T05:16:19;101983.01;;;6.31;45.90
69219;BME280;56232;53.384;-2.732;2024-01-25T05:18:43;101974.58;;;5.74;45.94
69219;BME280;56232;53.384;-2.732;2024-01-25T05:21:09;101975.16;;;5.92;45.98
69219;BME280;56232;53.384;-2.732;2024-01-25T05:23:34;101975.21;;;5.20;46.38
69219;BME280;56232;53.384;-2.732;2024-01-25T05:26:00;101975.78;;;5.24;46.45
69219;BME280;56232;53.384;-2.732;2024-01-25T05:28:25;101968.14;;;6.21;46.67
69219;BME280;56232;53.384;-2.732;2024-01-25T05:30:51;101971.01;;;5.09;46.99
69219;BME280;56232;53.384;-2.732;2024-01-25T05:33:17;101973.88;;;5.20;46.71
69219;BME280;56232;53.384;-2.732;2024-01-25T05:35:42;101968.53;;;4.77;46.69
69219;BME280;56232;53.384;-2.732;2024-01-25T05:38:07;101978.44;;;5.52;46.43
69219;BME280;56232;53.384;-2.732;2024-01-25T05:40:33;101974.35;;;4.98;45.95
69219;BME280;56232;53.384;-2.732;2024-01-25T05:42:59;101971.70;;;6.20;45.39
69219;BME280;56232;53.384;-2.732;2024-01-25T05:45:24;101966.20;;;5.78;46.13
69219;BME280;56232;53.384;-2.732;2024-01-25T05:47:50;101959.65;;;5.88;45.42
69219;BME280;56232;53.384;-2.732;2024-01-25T05:50:16;101943.22;;;5.72;45.68
69219;BME280;56232;53.384;-2.732;2024-01-25T05:52:41;101929.44;;;5.37;46.01
69219;BME280;56232;53.384;-2.732;2024-01-25T05:55:07;101921.63;;;4.81;46.93
69219;BME280;56232;53.384;-2.732;2024-01-25T05:57:34;101925.06;;;5.60;47.62
69219;BME280;56232;53.384;-2.732;2024-01-25T05:59:57;101925.10;;;5.40;48.18
69219;BME280;56232;53.384;-2.732;2024-01-25T06:02:22;101929.60;;;4.76;48.42
69219;BME280;56232;53.384;-2.732;2024-01-25T06:04:47;101919.96;;;5.17;48.71
69219;BME280;56232;53.384;-2.732;2024-01-25T06:07:13;101915.05;;;4.96;48.99
69219;BME280;56232;53.384;-2.732;2024-01-25T06:09:38;101919.32;;;4.80;49.56
69219;BME280;56232;53.384;-2.732;2024-01-25T06:12:05;101910.25;;;4.80;49.58
69219;BME280;56232;53.384;-2.732;2024-01-25T06:14:29;101901.82;;;4.66;49.93
69219;BME280;56232;53.384;-2.732;2024-01-25T06:16:54;101899.94;;;5.18;49.83
69219;BME280;56232;53.384;-2.732;2024-01-25T06:19:20;101895.87;;;5.21;50.06
69219;BME280;56232;53.384;-2.732;2024-01-25T06:21:45;101893.97;;;4.84;50.20
69219;BME280;56232;53.384;-2.732;2024-01-25T06:24:11;101888.98;;;5.00;50.12
69219;BME280;56232;53.384;-2.732;2024-01-25T06:26:36;101884.54;;;5.21;50.16
69219;BME280;56232;53.384;-2.732;2024-01-25T06:29:01;101881.31;;;5.47;49.91
69219;BME280;56232;53.384;-2.732;2024-01-25T06:31:28;101875.82;;;5.03;49.84
69219;BME280;56232;53.384;-2.732;2024-01-25T06:33:52;101870.87;;;5.85;49.92
69219;BME280;56232;53.384;-2.732;2024-01-25T06:36:19;101864.29;;;5.45;49.98
69219;BME280;56232;53.384;-2.732;2024-01-25T06:38:43;101857.71;;;6.18;50.03
69219;BME280;56232;53.384;-2.732;2024-01-25T06:41:09;101861.21;;;6.30;50.03
69219;BME280;56232;53.384;-2.732;2024-01-25T06:43:34;101870.92;;;5.39;49.91
69219;BME280;56232;53.384;-2.732;2024-01-25T06:46:00;101865.06;;;6.09;49.89
69219;BME280;56232;53.384;-2.732;2024-01-25T06:48:25;101862.80;;;5.80;49.74
69219;BME280;56232;53.384;-2.732;2024-01-25T06:50:50;101865.72;;;5.92;49.38
69219;BME280;56232;53.384;-2.732;2024-01-25T06:53:16;101865.00;;;6.10;49.54
69219;BME280;56232;53.384;-2.732;2024-01-25T06:55:41;101866.18;;;6.12;48.69
69219;BME280;56232;53.384;-2.732;2024-01-25T06:58:07;101863.66;;;6.14;48.76
69219;BME280;56232;53.384;-2.732;2024-01-25T07:00:32;101861.67;;;6.12;48.87
69219;BME280;56232;53.384;-2.732;2024-01-25T07:02:57;101861.45;;;6.10;48.77
69219;BME280;56232;53.384;-2.732;2024-01-25T07:05:23;101856.67;;;7.29;48.56
69219;BME280;56232;53.384;-2.732;2024-01-25T07:07:49;101854.04;;;6.24;48.23
69219;BME280;56232;53.384;-2.732;2024-01-25T07:10:14;101845.58;;;5.70;49.05
69219;BME280;56232;53.384;-2.732;2024-01-25T07:12:40;101841.22;;;6.39;48.79
69219;BME280;56232;53.384;-2.732;2024-01-25T07:15:06;101836.64;;;6.40;48.87
69219;BME280;56232;53.384;-2.732;2024-01-25T07:17:31;101840.33;;;5.93;49.32
69219;BME280;56232;53.384;-2.732;2024-01-25T07:19:56;101835.96;;;6.67;48.54
69219;BME280;56232;53.384;-2.732;2024-01-25T07:22:21;101836.00;;;6.76;48.53
69219;BME280;56232;53.384;-2.732;2024-01-25T07:24:47;101835.00;;;6.75;48.78
69219;BME280;56232;53.384;-2.732;2024-01-25T07:27:12;101832.09;;;5.72;48.97
69219;BME280;56232;53.384;-2.732;2024-01-25T07:29:37;101833.89;;;6.97;48.62
69219;BME280;56232;53.384;-2.732;2024-01-25T07:32:03;101832.60;;;6.03;49.04
69219;BME280;56232;53.384;-2.732;2024-01-25T07:34:28;101832.86;;;7.26;48.76
69219;BME280;56232;53.384;-2.732;2024-01-25T07:36:54;101830.89;;;6.78;49.27
69219;BME280;56232;53.384;-2.732;2024-01-25T07:39:20;101827.56;;;6.55;48.66
69219;BME280;56232;53.384;-2.732;2024-01-25T07:41:45;101820.11;;;7.01;48.92
69219;BME280;56232;53.384;-2.732;2024-01-25T07:44:11;101813.69;;;7.04;49.00
69219;BME280;56232;53.384;-2.732;2024-01-25T07:46:37;101808.07;;;7.10;48.93
69219;BME280;56232;53.384;-2.732;2024-01-25T07:49:02;101810.19;;;7.24;49.11
69219;BME280;56232;53.384;-2.732;2024-01-25T07:51:27;101812.59;;;6.82;48.62
69219;BME280;56232;53.384;-2.732;2024-01-25T07:53:53;101810.79;;;6.81;48.42
69219;BME280;56232;53.384;-2.732;2024-01-25T07:56:19;101808.98;;;6.87;48.42
69219;BME280;56232;53.384;-2.732;2024-01-25T07:58:43;101804.21;;;6.95;48.84
69219;BME280;56232;53.384;-2.732;2024-01-25T08:01:09;101797.44;;;7.53;48.84
69219;BME280;56232;53.384;-2.732;2024-01-25T08:03:34;101791.82;;;6.98;48.36
69219;BME280;56232;53.384;-2.732;2024-01-25T08:06:01;101785.93;;;7.42;48.57
69219;BME280;56232;53.384;-2.732;2024-01-25T08:08:25;101789.02;;;7.38;48.51
69219;BME280;56232;53.384;-2.732;2024-01-25T08:10:50;101778.15;;;6.93;48.67
69219;BME280;56232;53.384;-2.732;2024-01-25T08:13:16;101772.39;;;7.46;48.69
69219;BME280;56232;53.384;-2.732;2024-01-25T08:15:41;101764.76;;;6.84;47.94
69219;BME280;56232;53.384;-2.732;2024-01-25T08:18:06;101760.56;;;6.68;48.38
69219;BME280;56232;53.384;-2.732;2024-01-25T08:20:31;101756.46;;;7.11;48.24
69219;BME280;56232;53.384;-2.732;2024-01-25T08:22:57;101752.51;;;6.97;48.27
69219;BME280;56232;53.384;-2.732;2024-01-25T08:25:23;101753.34;;;6.41;48.32
69219;BME280;56232;53.384;-2.732;2024-01-25T08:27:48;101755.92;;;6.81;48.05
69219;BME280;56232;53.384;-2.732;2024-01-25T08:30:14;101754.14;;;6.80;48.60
69219;BME280;56232;53.384;-2.732;2024-01-25T08:32:39;101758.03;;;6.90;48.24
69219;BME280;56232;53.384;-2.732;2024-01-25T08:35:05;101756.62;;;6.57;47.90
69219;BME280;56232;53.384;-2.732;2024-01-25T08:37:30;101754.07;;;7.17;48.31
69219;BME280;56232;53.384;-2.732;2024-01-25T08:39:56;101753.83;;;7.41;48.52
69219;BME280;56232;53.384;-2.732;2024-01-25T08:42:21;101751.79;;;7.67;48.85
69219;BME280;56232;53.384;-2.732;2024-01-25T08:44:47;101745.07;;;7.95;48.16
69219;BME280;56232;53.384;-2.732;2024-01-25T08:47:13;101745.92;;;7.39;47.60
69219;BME280;56232;53.384;-2.732;2024-01-25T08:49:39;101749.08;;;7.38;47.93
69219;BME280;56232;53.384;-2.732;2024-01-25T08:52:04;101752.69;;;7.38;47.97
69219;BME280;56232;53.384;-2.732;2024-01-25T08:54:29;101755.14;;;7.97;48.28
69219;BME280;56232;53.384;-2.732;2024-01-25T08:56:54;101752.31;;;7.63;48.44
69219;BME280;56232;53.384;-2.732;2024-01-25T08:59:20;101752.93;;;7.34;48.33
69219;BME280;56232;53.384;-2.732;2024-01-25T09:01:45;101750.79;;;7.98;48.53
69219;BME280;56232;53.384;-2.732;2024-01-25T09:04:11;101752.79;;;7.68;48.26
69219;BME280;56232;53.384;-2.732;2024-01-25T09:06:37;101751.94;;;8.29;48.40
69219;BME280;56232;53.384;-2.732;2024-01-25T09:09:02;101745.75;;;8.46;48.57
69219;BME280;56232;53.384;-2.732;2024-01-25T09:11:27;101735.51;;;8.62;48.24
69219;BME280;56232;53.384;-2.732;2024-01-25T09:13:53;101735.17;;;8.14;48.57
69219;BME280;56232;53.384;-2.732;2024-01-25T09:16:20;101726.80;;;7.60;48.39
69219;BME280;56232;53.384;-2.732;2024-01-25T09:18:45;101721.17;;;8.20;48.32
69219;BME280;56232;53.384;-2.732;2024-01-25T09:21:10;101722.04;;;7.51;48.11
69219;BME280;56232;53.384;-2.732;2024-01-25T09:23:35;101724.77;;;7.46;48.72
69219;BME280;56232;53.384;-2.732;2024-01-25T09:26:01;101722.14;;;8.20;48.48
69219;BME280;56232;53.384;-2.732;2024-01-25T09:28:27;101719.25;;;8.19;48.34
69219;BME280;56232;53.384;-2.732;2024-01-25T09:30:53;101715.42;;;8.18;48.50
69219;BME280;56232;53.384;-2.732;2024-01-25T09:33:20;101711.76;;;8.36;48.63
69219;BME280;56232;53.384;-2.732;2024-01-25T09:35:44;101715.09;;;8.11;48.77
69219;BME280;56232;53.384;-2.732;2024-01-25T09:38:09;101709.38;;;8.16;48.06
69219;BME280;56232;53.384;-2.732;2024-01-25T09:40:34;101704.54;;;8.67;47.92
69219;BME280;56232;53.384;-2.732;2024-01-25T09:43:00;101702.26;;;7.95;47.98
69219;BME280;56232;53.384;-2.732;2024-01-25T09:45:25;101696.57;;;7.96;48.48
69219;BME280;56232;53.384;-2.732;2024-01-25T09:47:51;101695.58;;;7.98;48.03
69219;BME280;56232;53.384;-2.732;2024-01-25T09:50:17;101689.86;;;8.66;48.35
69219;BME280;56232;53.384;-2.732;2024-01-25T09:52:43;101691.88;;;8.06;48.17
69219;BME280;56232;53.384;-2.732;2024-01-25T09:55:11;101678.46;;;7.96;48.16
69219;BME280;56232;53.384;-2.732;2024-01-25T09:57:35;101677.67;;;7.96;48.08
69219;BME280;56232;53.384;-2.732;2024-01-25T09:59:59;101671.07;;;7.97;47.85
69219;BME280;56232;53.384;-2.732;2024-01-25T10:02:24;101668.35;;;7.93;47.97
69219;BME280;56232;53.384;-2.732;2024-01-25T10:04:51;101668.71;;;8.03;47.74
69219;BME280;56232;53.384;-2.732;2024-01-25T10:07:16;101668.79;;;8.19;48.08
69219;BME280;56232;53.384;-2.732;2024-01-25T10:09:42;101670.72;;;8.40;48.07
69219;BME280;56232;53.384;-2.732;2024-01-25T10:12:07;101674.27;;;8.59;47.57
69219;BME280;56232;53.384;-2.732;2024-01-25T10:14:32;101670.20;;;8.70;47.33
69219;BME280;56232;53.384;-2.732;2024-01-25T10:16:58;101674.06;;;8.88;46.93
69219;BME280;56232;53.384;-2.732;2024-01-25T10:19:25;101675.32;;;9.06;46.46
69219;BME280;56232;53.384;-2.732;2024-01-25T10:21:49;101674.98;;;9.20;47.12
69219;BME280;56232;53.384;-2.732;2024-01-25T10:24:15;101672.25;;;8.69;46.39
69219;BME280;56232;53.384;-2.732;2024-01-25T10:26:41;101671.01;;;8.77;46.70
69219;BME280;56232;53.384;-2.732;2024-01-25T10:29:06;101666.48;;;8.40;46.65
69219;BME280;56232;53.384;-2.732;2024-01-25T10:31:34;101663.33;;;8.98;46.43
69219;BME280;56232;53.384;-2.732;2024-01-25T10:33:57;101660.21;;;8.99;46.33
69219;BME280;56232;53.384;-2.732;2024-01-25T10:36:24;101659.64;;;9.66;46.66
69219;BME280;56232;53.384;-2.732;2024-01-25T10:38:49;101664.20;;;9.90;45.82
69219;BME280;56232;53.384;-2.732;2024-01-25T10:41:14;101665.60;;;8.87;45.97
69219;BME280;56232;53.384;-2.732;2024-01-25T10:43:40;101656.82;;;9.44;46.21
69219;BME280;56232;53.384;-2.732;2024-01-25T10:46:05;101655.49;;;9.19;45.84
69219;BME280;56232;53.384;-2.732;2024-01-25T10:48:31;101655.17;;;9.38;45.72
69219;BME280;56232;53.384;-2.732;2024-01-25T10:50:57;101649.48;;;9.52;46.15
69219;BME280;56232;53.384;-2.732;2024-01-25T10:53:22;101642.76;;;10.34;46.12
69219;BME280;56232;53.384;-2.732;2024-01-25T10:55:48;101642.04;;;10.03;45.50
69219;BME280;56232;53.384;-2.732;2024-01-25T10:58:13;101638.64;;;10.21;44.88
69219;BME280;56232;53.384;-2.732;2024-01-25T11:00:39;101637.88;;;10.30;45.19
69219;BME280;56232;53.384;-2.732;2024-01-25T11:03:05;101631.12;;;10.93;44.69
69219;BME280;56232;53.384;-2.732;2024-01-25T11:05:30;101627.85;;;10.55;45.51
69219;BME280;56232;53.384;-2.732;2024-01-25T11:07:56;101622.81;;;10.89;45.29
69219;BME280;56232;53.384;-2.732;2024-01-25T11:10:25;101619.18;;;11.05;45.53
69219;BME280;56232;53.384;-2.732;2024-01-25T11:12:49;101618.00;;;10.55;45.10
69219;BME280;56232;53.384;-2.732;2024-01-25T11:15:19;101613.72;;;10.24;45.02
69219;BME280;56232;53.384;-2.732;2024-01-25T11:17:40;101615.23;;;10.78;45.48
69219;BME280;56232;53.384;-2.732;2024-01-25T11:20:05;101611.67;;;11.06;45.41
69219;BME280;56232;53.384;-2.732;2024-01-25T11:22:34;101607.07;;;11.11;45.25
69219;BME280;56232;53.384;-2.732;2024-01-25T11:24:55;101604.00;;;10.76;45.21
69219;BME280;56232;53.384;-2.732;2024-01-25T11:27:21;101610.34;;;10.72;45.83
69219;BME280;56232;53.384;-2.732;2024-01-25T11:29:46;101609.64;;;10.83;45.61
69219;BME280;56232;53.384;-2.732;2024-01-25T11:32:12;101603.66;;;10.85;45.62
69219;BME280;56232;53.384;-2.732;2024-01-25T11:34:37;101599.71;;;10.71;45.92
69219;BME280;56232;53.384;-2.732;2024-01-25T11:37:03;101592.72;;;10.84;45.93
69219;BME280;56232;53.384;-2.732;2024-01-25T11:39:29;101587.57;;;10.76;45.87
69219;BME280;56232;53.384;-2.732;2024-01-25T11:41:54;101586.84;;;11.37;46.03
69219;BME280;56232;53.384;-2.732;2024-01-25T11:44:20;101579.45;;;11.46;46.20
69219;BME280;56232;53.384;-2.732;2024-01-25T11:46:46;101576.35;;;11.59;46.27
69219;BME280;56232;53.384;-2.732;2024-01-25T11:49:11;101575.33;;;11.22;44.34
69219;BME280;56232;53.384;-2.732;2024-01-25T11:51:37;101577.00;;;10.43;45.04
69219;BME280;56232;53.384;-2.732;2024-01-25T11:54:03;101571.36;;;12.10;45.20
69219;BME280;56232;53.384;-2.732;2024-01-25T11:56:30;101566.12;;;10.66;44.17
69219;BME280;56232;53.384;-2.732;2024-01-25T11:58:54;101560.87;;;10.76;45.39
69219;BME280;56232;53.384;-2.732;2024-01-25T12:01:20;101555.57;;;12.11;44.57
69219;BME280;56232;53.384;-2.732;2024-01-25T12:03:45;101554.08;;;11.06;45.04
69219;BME280;56232;53.384;-2.732;2024-01-25T12:06:12;101545.15;;;11.64;43.32
69219;BME280;56232;53.384;-2.732;2024-01-25T12:08:37;101534.75;;;11.04;44.90
69219;BME280;56232;53.384;-2.732;2024-01-25T12:11:04;101531.57;;;11.34;46.09
69219;BME280;56232;53.384;-2.732;2024-01-25T12:13:32;101523.23;;;11.79;45.35
69219;BME280;56232;53.384;-2.732;2024-01-25T12:15:59;101521.11;;;11.35;45.69
69219;BME280;56232;53.384;-2.732;2024-01-25T12:18:20;101511.92;;;12.10;45.05
69219;BME280;56232;53.384;-2.732;2024-01-25T12:20:45;101504.08;;;11.91;44.46
69219;BME280;56232;53.384;-2.732;2024-01-25T12:23:10;101497.58;;;11.34;45.09
69219;BME280;56232;53.384;-2.732;2024-01-25T12:25:39;101491.73;;;11.97;44.91
69219;BME280;56232;53.384;-2.732;2024-01-25T12:28:02;101490.97;;;11.44;45.16
69219;BME280;56232;53.384;-2.732;2024-01-25T12:30:27;101491.99;;;12.02;45.16
69219;BME280;56232;53.384;-2.732;2024-01-25T12:32:53;101493.53;;;11.39;45.38
69219;BME280;56232;53.384;-2.732;2024-01-25T12:35:19;101491.69;;;11.52;45.65
69219;BME280;56232;53.384;-2.732;2024-01-25T12:37:44;101485.24;;;11.11;45.78